Hauptseite
METAR-TAF:

METAR-TAF

Flughäfen :

George Best Belfast City Airport

Belfast City, Nordirland

Breite: 54-36N, Länge: 005-53W, Höhe: 5 m

Beobachtung

Neuester Wetterbericht von vor 21 Minuten, um 19:20 UTC
Wind 5 kt aus Ost/Nordost, variierte zwischen Nord/Nordost und Ost/Südost
Temperatur 12°C
Luftfeuchtigkeit 67%
Luftdruck 1018 hPa
Sichtweite 10 km oder mehr

METAR: EGAC 221920Z AUTO 06005KT 030V110 9999 NCD 12/06 Q1018

Zeit: 20:41 (19:41 UTC)

Prognose

Neuester Wetterbericht von vor 2 Stunden und 38 Minuten, um 17:03 UTC
Gültige Prognose vom 22 um 18 UTC bis 22 um 21 UTC
Wind 9 kt aus Ost/Nordost
Sichtweite 10 km oder mehr
Leicht bewölkt in der Höhe von 4000 ft

TAF: EGAC 221703Z 2218/2221 07009KT 9999 FEW040

Wetterbeobachtungen und Prognosen von mehr als 4000 Flughäfen (METAR und TAF Bericht).

Die verfügbaren Stationen werden durch gelbe und rote Markierungen auf der Karte dargestellt.

Führen Sie die Maus auf sie, um den Namen der Station zu sehen.

Darauf klicken, um die Beobachtung von Wetterbeobachtungen und Prognosen zu sehen.

Um die Karte zu ändern : klicken Sie auf den grünen Tasten mit einem schwarzen Kreuz Zum Vergrößern, auf den grünen Button mit einem Gedankenstrich zu verkleinern, oder auf die grünen Pfeile für benachbarte Karten.


METAR-TAF: